createdAt,value
2019-04-01T00:01:22.869Z,94893.32
2019-04-01T00:03:52.472Z,94901.91
2019-04-01T00:06:21.954Z,94894.32
2019-04-01T00:08:51.485Z,94886.97
2019-04-01T00:11:21.050Z,94892.36
2019-04-01T00:13:50.531Z,94888.73
2019-04-01T00:16:20.058Z,94884.97
2019-04-01T00:19:02.356Z,94887.64
2019-04-01T00:21:21.843Z,94881.96
2019-04-01T00:23:51.337Z,94892.09
2019-04-01T00:26:20.904Z,94891.77
2019-04-01T00:28:50.471Z,94891.84
2019-04-01T00:31:19.937Z,94885.16
2019-04-01T00:33:49.424Z,94889.92
2019-04-01T00:36:18.919Z,94893.75
2019-04-01T00:38:48.500Z,94888.80
2019-04-01T00:41:18.174Z,94890.80
2019-04-01T00:43:55.021Z,94895.07
2019-04-01T00:46:24.957Z,94891.20
2019-04-01T00:48:54.653Z,94893.08
2019-04-01T00:51:24.359Z,94900.27
2019-04-01T00:53:53.770Z,94895.24
2019-04-01T00:56:23.277Z,94896.03
2019-04-01T00:58:52.853Z,94904.12
2019-04-01T01:01:22.497Z,94899.52
2019-04-01T01:03:51.986Z,94889.13
2019-04-01T01:06:21.447Z,94887.85
2019-04-01T01:08:50.981Z,94893.80
2019-04-01T01:11:21.422Z,94902.90
2019-04-01T01:13:50.849Z,94900.98
2019-04-01T01:16:20.381Z,94900.47
2019-04-01T01:18:49.881Z,94895.92
2019-04-01T01:21:19.305Z,94895.99
2019-04-01T01:23:48.812Z,94889.85
2019-04-01T01:26:18.297Z,94895.99
2019-04-01T01:28:47.718Z,94901.51
2019-04-01T01:31:17.289Z,94894.28
2019-04-01T01:33:46.779Z,94898.42
2019-04-01T01:36:16.264Z,94899.31
2019-04-01T01:38:50.786Z,94898.53
2019-04-01T01:41:20.207Z,94897.06
2019-04-01T01:43:50.709Z,94897.95
2019-04-01T01:46:20.129Z,94910.06
2019-04-01T01:48:49.833Z,94904.92
2019-04-01T01:51:19.321Z,94915.57
2019-04-01T01:53:48.754Z,94917.19
2019-04-01T01:56:18.249Z,94911.20
2019-04-01T01:58:47.907Z,94913.58
2019-04-01T02:01:17.341Z,94907.58
2019-04-01T02:03:46.811Z,94910.89
2019-04-01T02:06:16.365Z,94907.09
2019-04-01T02:08:45.792Z,94908.02
2019-04-01T02:11:15.292Z,94908.41
2019-04-01T02:13:44.920Z,94910.56
2019-04-01T02:16:14.543Z,94907.16
2019-04-01T02:18:44.277Z,94898.11
2019-04-01T02:21:13.697Z,94920.50
2019-04-01T02:23:43.120Z,94907.46
2019-04-01T02:26:12.571Z,94908.64
2019-04-01T02:28:41.996Z,94926.02
2019-04-01T02:31:12.698Z,94930.90
2019-04-01T02:33:42.193Z,94923.77
2019-04-01T02:36:11.803Z,94923.64
2019-04-01T02:38:41.234Z,94928.39
2019-04-01T02:41:10.827Z,94910.78
2019-04-01T02:43:40.312Z,94926.30
2019-04-01T02:46:09.929Z,94921.16
2019-04-01T02:48:39.454Z,94920.59
2019-04-01T02:51:08.942Z,94928.09
2019-04-01T02:53:38.509Z,94919.70
2019-04-01T02:56:08.082Z,94925.52
2019-04-01T02:58:39.459Z,94925.34
2019-04-01T03:01:09.075Z,94921.69
2019-04-01T03:03:38.495Z,94928.91
2019-04-01T03:06:08.029Z,94931.95
2019-04-01T03:08:37.582Z,94934.19
2019-04-01T03:11:10.391Z,94937.06
2019-04-01T03:13:38.307Z,94941.72
2019-04-01T03:16:07.818Z,94942.03
2019-04-01T03:18:37.321Z,94932.23
2019-04-01T03:21:06.917Z,94932.21
2019-04-01T03:23:36.326Z,94940.58
2019-04-01T03:26:05.888Z,94937.41
2019-04-01T03:28:35.404Z,94943.13
2019-04-01T03:31:05.054Z,94937.55
2019-04-01T03:33:34.526Z,94945.00
2019-04-01T03:36:04.147Z,94948.06
2019-04-01T03:38:33.581Z,94949.66
2019-04-01T03:41:03.022Z,94953.52
2019-04-01T03:43:32.667Z,94951.40
2019-04-01T03:46:02.153Z,94950.09
2019-04-01T03:48:31.686Z,94949.11
2019-04-01T03:51:01.122Z,94950.08
2019-04-01T03:53:30.705Z,94951.48
2019-04-01T03:56:00.266Z,94948.50
2019-04-01T03:58:29.881Z,94958.56
2019-04-01T04:00:59.468Z,94961.11
2019-04-01T04:03:29.001Z,94960.66
2019-04-01T04:05:58.633Z,94958.13
2019-04-01T04:08:28.138Z,94962.89
2019-04-01T04:10:57.699Z,94961.09
2019-04-01T04:13:27.262Z,94952.95
2019-04-01T04:15:56.997Z,94967.35
2019-04-01T04:18:26.561Z,94973.08
2019-04-01T04:20:56.059Z,94972.91
2019-04-01T04:23:25.651Z,94968.30
2019-04-01T04:25:55.221Z,94978.52
2019-04-01T04:28:24.723Z,94975.61
2019-04-01T04:30:54.298Z,94972.13
2019-04-01T04:33:26.665Z,94981.22
2019-04-01T04:35:56.165Z,94975.77
2019-04-01T04:38:25.654Z,94975.75
2019-04-01T04:40:55.254Z,94975.16
2019-04-01T04:43:24.876Z,94982.72
2019-04-01T04:45:54.644Z,94986.53
2019-04-01T04:48:24.181Z,94981.70
2019-04-01T04:50:53.645Z,94980.38
2019-04-01T04:53:23.149Z,94972.23
2019-04-01T04:55:52.714Z,94976.67
2019-04-01T04:58:22.311Z,94977.85
2019-04-01T05:00:52.638Z,94973.28
2019-04-01T05:03:22.164Z,94963.88
2019-04-01T05:05:51.655Z,94967.85
2019-04-01T05:08:21.165Z,94958.36
2019-04-01T05:10:50.647Z,94973.64
2019-04-01T05:13:30.190Z,94951.61
2019-04-01T05:16:01.529Z,94961.80
2019-04-01T05:20:16.348Z,94965.05
2019-04-01T05:21:19.530Z,94956.77
2019-04-01T05:24:10.704Z,94956.41
2019-04-01T05:26:42.836Z,94956.12
2019-04-01T05:29:15.208Z,94952.39
2019-04-01T05:31:53.777Z,94949.58
2019-04-01T05:34:25.459Z,94943.44
2019-04-01T05:39:58.981Z,94940.13
2019-04-01T05:42:36.422Z,94930.69
2019-04-01T05:45:07.687Z,94933.58
2019-04-01T05:51:20.759Z,94920.58
2019-04-01T05:53:55.102Z,94919.73
2019-04-01T05:56:49.034Z,94911.81
2019-04-01T05:59:23.061Z,94910.14
2019-04-01T06:01:56.412Z,94923.63
2019-04-01T06:04:25.693Z,94908.54
2019-04-01T06:09:39.487Z,94908.91
2019-04-01T06:12:14.937Z,94911.72
2019-04-01T06:15:16.435Z,94906.13
2019-04-01T06:18:10.172Z,94911.98
2019-04-01T06:20:18.447Z,94905.12
2019-04-01T06:22:48.262Z,94905.73
2019-04-01T06:28:17.940Z,94894.69
2019-04-01T06:30:47.800Z,94895.79
2019-04-01T06:33:19.083Z,94887.25
2019-04-01T06:36:13.307Z,94876.93
2019-04-01T06:38:23.114Z,94888.06
2019-04-01T06:40:52.798Z,94889.56
2019-04-01T06:43:22.581Z,94893.13
2019-04-01T06:45:52.342Z,94895.09
2019-04-01T06:48:22.025Z,94885.22
2019-04-01T06:51:16.291Z,94875.82
2019-04-01T06:53:51.314Z,94874.00
2019-04-01T06:56:39.253Z,94873.86
2019-04-01T06:59:10.594Z,94865.80
2019-04-01T07:01:59.313Z,94869.60
2019-04-01T07:04:29.153Z,94870.34
2019-04-01T07:06:58.887Z,94862.68
2019-04-01T07:09:28.540Z,94866.38
2019-04-01T07:11:58.319Z,94865.01
2019-04-01T07:14:46.330Z,94857.10
2019-04-01T07:17:14.445Z,94850.48
2019-04-01T07:19:44.125Z,94852.95
2019-04-01T07:22:19.720Z,94847.94
2019-04-01T07:28:31.214Z,94846.08
2019-04-01T07:31:00.862Z,94845.09
2019-04-01T07:33:30.539Z,94851.34
2019-04-01T07:36:00.285Z,94844.33
2019-04-01T07:38:30.155Z,94858.23
2019-04-01T07:40:59.998Z,94853.02
2019-04-01T07:43:30.404Z,94853.66
2019-04-01T07:46:15.857Z,94852.08
2019-04-01T07:48:45.841Z,94841.68
2019-04-01T07:51:25.649Z,94851.01
2019-04-01T07:54:01.988Z,94848.84
2019-04-01T07:56:38.306Z,94849.95
2019-04-01T07:59:08.016Z,94847.09
2019-04-01T08:03:01.790Z,94849.17
2019-04-01T08:08:15.083Z,94852.88
2019-04-01T08:10:46.476Z,94850.83
2019-04-01T08:13:17.993Z,94846.34
2019-04-01T08:15:53.194Z,94838.92
2019-04-01T08:19:15.798Z,94842.91
2019-04-01T08:24:18.173Z,94839.36
2019-04-01T08:27:03.124Z,94842.45
2019-04-01T08:29:32.789Z,94837.98
2019-04-01T08:32:14.027Z,94829.84
2019-04-01T08:34:51.509Z,94830.91
2019-04-01T09:11:39.655Z,94785.25
2019-04-01T09:20:46.560Z,94772.50
2019-04-01T09:23:41.969Z,94768.47
2019-04-01T09:26:04.106Z,94754.81
2019-04-01T09:28:36.876Z,94749.94
2019-04-01T09:31:10.299Z,94742.14
2019-04-01T09:33:39.978Z,94752.30
2019-04-01T09:36:10.261Z,94747.09
2019-04-01T09:45:10.864Z,94740.45
2019-04-01T09:47:40.453Z,94727.95
2019-04-01T09:50:40.762Z,94724.28
2019-04-01T09:56:44.757Z,94716.00
2019-04-01T09:59:14.569Z,94714.80
2019-04-01T10:01:44.256Z,94703.63
2019-04-01T10:04:28.658Z,94703.66
2019-04-01T10:07:02.947Z,94705.89
2019-04-01T10:09:46.164Z,94708.42
2019-04-01T10:12:20.433Z,94701.88
2019-04-01T10:23:53.342Z,94679.63
2019-04-01T10:38:22.445Z,94683.83
2019-04-01T10:40:52.082Z,94684.84
2019-04-01T10:43:21.833Z,94678.34
2019-04-01T10:45:51.425Z,94663.95
2019-04-01T10:48:21.077Z,94674.16
2019-04-01T10:50:50.650Z,94660.80
2019-04-01T10:53:20.367Z,94665.98
2019-04-01T10:55:49.972Z,94659.68
2019-04-01T10:58:19.590Z,94669.68
2019-04-01T11:00:49.101Z,94659.24
2019-04-01T11:03:18.677Z,94660.55
2019-04-01T11:05:48.241Z,94656.84
2019-04-01T11:08:17.920Z,94651.85
2019-04-01T11:10:47.491Z,94645.84
2019-04-01T11:13:16.999Z,94646.88
2019-04-01T11:15:46.578Z,94640.86
2019-04-01T11:18:25.398Z,94644.77
2019-04-01T11:38:34.296Z,94625.30
2019-04-01T11:41:03.547Z,94618.34
2019-04-01T11:43:45.738Z,94610.84
2019-04-01T11:46:12.835Z,94607.15
2019-04-01T11:48:49.089Z,94598.97
2019-04-01T11:51:49.594Z,94605.55
2019-04-01T11:54:10.223Z,94603.74
2019-04-01T11:56:56.710Z,94610.90
2019-04-01T12:06:23.460Z,94613.39
2019-04-01T12:14:50.293Z,94553.60
2019-04-01T12:32:13.187Z,94568.87
2019-04-01T12:34:42.844Z,94574.19
2019-04-01T12:37:15.762Z,94564.02
2019-04-01T12:45:15.777Z,94548.48
2019-04-01T12:48:15.803Z,94557.06
2019-04-01T12:51:00.956Z,94552.16
2019-04-01T12:57:18.816Z,94557.63
2019-04-01T13:02:59.665Z,94555.05
2019-04-01T13:05:37.593Z,94545.36
2019-04-01T13:08:20.977Z,94545.27
2019-04-01T13:10:56.401Z,94551.86
2019-04-01T13:13:37.809Z,94536.81
2019-04-01T13:17:00.889Z,94536.67
2019-04-01T13:18:48.078Z,94532.88
2019-04-01T13:21:23.286Z,94528.47
2019-04-01T13:23:59.775Z,94540.34
2019-04-01T13:26:44.311Z,94531.36
2019-04-01T13:29:13.970Z,94531.43
2019-04-01T13:32:00.406Z,94530.16
2019-04-01T13:34:55.527Z,94532.44
2019-04-01T13:43:37.253Z,94530.56
2019-04-01T13:48:57.836Z,94544.23
2019-04-01T13:51:25.819Z,94538.45
2019-04-01T13:54:07.955Z,94534.72
2019-04-01T13:56:43.075Z,94537.14
2019-04-01T13:59:17.486Z,94530.73
2019-04-01T14:01:50.311Z,94530.98
2019-04-01T14:04:22.300Z,94525.79
2019-04-01T14:09:58.441Z,94524.90
2019-04-01T14:15:21.525Z,94529.84
2019-04-01T14:24:02.363Z,94531.28
2019-04-01T14:24:37.592Z,94534.06
2019-04-01T14:26:41.094Z,94542.62
2019-04-01T14:29:18.954Z,94538.92
2019-04-01T14:32:18.020Z,94541.33
2019-04-01T14:34:30.862Z,94548.89
2019-04-01T14:37:02.127Z,94549.40
2019-04-01T14:39:34.763Z,94550.70
2019-04-01T14:42:03.058Z,94550.77
2019-04-01T14:44:32.640Z,94548.91
2019-04-01T14:47:03.679Z,94557.86
2019-04-01T14:49:33.577Z,94553.13
2019-04-01T14:52:03.056Z,94552.63
2019-04-01T14:54:34.094Z,94551.58
2019-04-01T14:57:04.211Z,94556.30
2019-04-01T14:59:33.650Z,94559.96
2019-04-01T15:02:03.817Z,94562.84
2019-04-01T15:04:34.808Z,94556.58
2019-04-01T15:07:04.606Z,94557.63
2019-04-01T15:09:34.120Z,94559.20
2019-04-01T15:12:03.872Z,94566.75
2019-04-01T15:14:33.445Z,94563.34
2019-04-01T15:17:02.966Z,94567.78
2019-04-01T15:19:32.663Z,94568.30
2019-04-01T15:22:02.285Z,94566.20
2019-04-01T15:24:31.744Z,94567.23
2019-04-01T15:27:01.176Z,94569.56
2019-04-01T15:29:30.749Z,94577.36
2019-04-01T15:32:00.361Z,94579.71
2019-04-01T15:34:29.866Z,94580.98
2019-04-01T15:36:59.368Z,94581.74
2019-04-01T15:39:28.843Z,94586.92
2019-04-01T15:42:04.328Z,94589.95
2019-04-01T15:44:51.159Z,94587.61
2019-04-01T15:47:23.201Z,94588.36
2019-04-01T15:49:52.759Z,94598.19
2019-04-01T15:52:22.830Z,94597.13
2019-04-01T15:54:52.464Z,94598.13
2019-04-01T15:57:22.110Z,94600.89
2019-04-01T15:59:51.773Z,94597.25
2019-04-01T16:02:21.408Z,94597.50
2019-04-01T16:04:51.162Z,94605.45
2019-04-01T16:07:22.591Z,94608.53
2019-04-01T16:09:52.281Z,94602.46
2019-04-01T16:12:21.669Z,94611.93
2019-04-01T16:14:51.093Z,94623.33
2019-04-01T16:17:21.955Z,94622.26
2019-04-01T16:19:52.577Z,94629.08
2019-04-01T16:22:22.346Z,94631.69
2019-04-01T16:24:51.846Z,94634.14
2019-04-01T16:27:21.443Z,94629.69
2019-04-01T16:29:50.991Z,94633.19
2019-04-01T16:32:20.419Z,94640.70
2019-04-01T16:34:49.921Z,94646.69
2019-04-01T16:37:19.362Z,94637.98
2019-04-01T16:39:49.200Z,94648.21
2019-04-01T16:42:19.497Z,94650.53
2019-04-01T16:44:49.314Z,94652.92
2019-04-01T16:47:18.856Z,94658.34
2019-04-01T16:49:48.388Z,94650.77
2019-04-01T16:52:18.058Z,94659.30
2019-04-01T16:54:58.568Z,94664.83
2019-04-01T16:57:28.205Z,94661.29
2019-04-01T16:59:57.882Z,94669.61
2019-04-01T17:02:27.454Z,94672.06
2019-04-01T17:05:00.231Z,94672.62
2019-04-01T17:07:28.246Z,94677.48
2019-04-01T17:09:58.285Z,94679.58
2019-04-01T17:12:28.459Z,94683.19
2019-04-01T17:14:58.307Z,94688.59
2019-04-01T17:17:27.873Z,94692.58
2019-04-01T17:19:57.359Z,94690.75
2019-04-01T17:22:27.046Z,94713.09
2019-04-01T17:24:57.429Z,94713.60
2019-04-01T17:27:27.428Z,94719.36
2019-04-01T17:29:56.995Z,94721.05
2019-04-01T17:32:26.736Z,94730.23
2019-04-01T17:34:56.383Z,94725.94
2019-04-01T17:37:25.891Z,94740.46
2019-04-01T17:39:55.569Z,94733.11
2019-04-01T17:42:26.903Z,94747.48
2019-04-01T17:45:02.498Z,94753.08
2019-04-01T17:47:32.559Z,94758.86
2019-04-01T17:50:02.129Z,94760.27
2019-04-01T17:52:31.893Z,94773.17
2019-04-01T17:55:01.393Z,94785.69
2019-04-01T17:57:31.193Z,94781.36
2019-04-01T18:00:00.912Z,94780.30
2019-04-01T18:02:31.280Z,94794.87
2019-04-01T18:05:02.718Z,94804.38
2019-04-01T18:07:32.402Z,94805.20
2019-04-01T18:10:02.006Z,94800.85
2019-04-01T18:12:32.041Z,94814.45
2019-04-01T18:15:01.634Z,94820.12
2019-04-01T18:17:31.234Z,94824.49
2019-04-01T18:20:00.889Z,94820.13
2019-04-01T18:22:30.817Z,94827.63
2019-04-01T18:25:00.321Z,94836.61
2019-04-01T18:27:30.132Z,94826.73
2019-04-01T18:29:59.679Z,94835.89
2019-04-01T18:32:29.178Z,94846.17
2019-04-01T18:34:58.717Z,94839.49
2019-04-01T18:37:28.254Z,94852.11
2019-04-01T18:39:57.760Z,94846.45
2019-04-01T18:42:27.320Z,94849.02
2019-04-01T18:44:56.893Z,94858.36
2019-04-01T18:47:26.569Z,94860.19
2019-04-01T18:49:56.070Z,94859.02
2019-04-01T18:52:25.758Z,94865.97
2019-04-01T18:54:55.333Z,94853.63
2019-04-01T18:57:24.964Z,94866.05
2019-04-01T18:59:54.387Z,94863.00
2019-04-01T19:02:23.961Z,94861.96
2019-04-01T19:04:53.583Z,94876.48
2019-04-01T19:07:23.164Z,94877.58
2019-04-01T19:10:05.604Z,94880.18
2019-04-01T19:12:23.913Z,94881.13
2019-04-01T19:14:53.487Z,94880.56
2019-04-01T19:17:23.113Z,94889.80
2019-04-01T19:19:52.613Z,94884.84
2019-04-01T19:22:22.053Z,94885.38
2019-04-01T19:24:51.563Z,94885.23
2019-04-01T19:27:22.115Z,94877.72
2019-04-01T19:29:51.906Z,94886.75
2019-04-01T19:32:21.544Z,94889.61
2019-04-01T19:34:51.116Z,94885.03
2019-04-01T19:37:20.619Z,94891.92
2019-04-01T19:39:50.130Z,94892.81
2019-04-01T19:42:19.906Z,94899.70
2019-04-01T19:44:49.590Z,94888.55
2019-04-01T19:47:19.366Z,94892.34
2019-04-01T19:49:48.908Z,94894.23
2019-04-01T19:52:18.596Z,94895.58
2019-04-01T19:54:48.017Z,94899.55
2019-04-01T19:57:17.606Z,94900.95
2019-04-01T19:59:47.332Z,94901.34
2019-04-01T20:02:16.930Z,94908.61
2019-04-01T20:04:46.729Z,94897.58
2019-04-01T20:07:16.515Z,94896.65
2019-04-01T20:09:46.383Z,94898.23
2019-04-01T20:12:16.037Z,94891.02
2019-04-01T20:14:45.531Z,94893.94
2019-04-01T20:17:15.107Z,94896.05
2019-04-01T20:19:46.513Z,94895.20
2019-04-01T20:22:17.350Z,94899.93
2019-04-01T20:24:47.918Z,94904.23
2019-04-01T20:27:20.631Z,94899.73
2019-04-01T20:29:51.592Z,94900.55
2019-04-01T20:32:21.303Z,94906.14
2019-04-01T20:34:56.762Z,94907.14
2019-04-01T20:37:22.134Z,94903.62
2019-04-01T20:39:51.628Z,94902.48
2019-04-01T20:42:21.420Z,94909.73
2019-04-01T20:44:50.998Z,94902.73
2019-04-01T20:47:22.372Z,94914.09
2019-04-01T20:49:51.868Z,94908.58
2019-04-01T20:52:21.799Z,94907.45
2019-04-01T20:54:51.467Z,94900.62
2019-04-01T20:57:21.961Z,94896.80
2019-04-01T20:59:51.657Z,94902.56
2019-04-01T21:02:21.458Z,94899.58
2019-04-01T21:04:50.903Z,94892.47
2019-04-01T21:07:20.467Z,94896.56
2019-04-01T21:09:50.047Z,94892.38
2019-04-01T21:12:19.764Z,94893.67
2019-04-01T21:14:49.305Z,94896.00
2019-04-01T21:17:18.798Z,94896.89
2019-04-01T21:19:48.373Z,94890.04
2019-04-01T21:22:17.942Z,94906.30
2019-04-01T21:24:47.513Z,94905.02
2019-04-01T21:27:17.087Z,94912.95
2019-04-01T21:29:46.698Z,94908.86
2019-04-01T21:32:17.083Z,94915.09
2019-04-01T21:34:46.783Z,94914.99
2019-04-01T21:37:16.279Z,94917.94
2019-04-01T21:39:45.916Z,94930.34
2019-04-01T21:42:15.487Z,94929.87
2019-04-01T21:44:46.934Z,94932.17
2019-04-01T21:47:16.590Z,94946.37
2019-04-01T21:49:47.188Z,94936.17
2019-04-01T21:52:16.695Z,94935.48
2019-04-01T21:54:46.116Z,94932.17
2019-04-01T21:57:15.617Z,94941.71
2019-04-01T21:59:46.007Z,94944.95
2019-04-01T22:02:15.715Z,94938.93
2019-04-01T22:04:45.278Z,94941.34
2019-04-01T22:07:14.764Z,94930.27
2019-04-01T22:09:44.363Z,94933.17
2019-04-01T22:12:14.061Z,94932.29
2019-04-01T22:14:43.770Z,94932.27
2019-04-01T22:17:13.384Z,94939.69
2019-04-01T22:19:42.807Z,94934.42
2019-04-01T22:22:12.492Z,94938.58
2019-04-01T22:24:41.899Z,94934.42
2019-04-01T22:27:11.369Z,94930.85
2019-04-01T22:29:40.857Z,94936.52
2019-04-01T22:32:10.453Z,94935.42
2019-04-01T22:34:40.022Z,94935.31
2019-04-01T22:37:09.524Z,94926.91
2019-04-01T22:39:38.957Z,94931.85
2019-04-01T22:42:08.768Z,94931.43
2019-04-01T22:44:38.184Z,94936.48
2019-04-01T22:47:07.756Z,94938.52
2019-04-01T22:49:37.346Z,94940.65
2019-04-01T22:52:06.932Z,94946.91
2019-04-01T22:54:37.579Z,94947.20
2019-04-01T22:57:07.069Z,94945.00
2019-04-01T22:59:36.486Z,94947.74
2019-04-01T23:02:06.049Z,94954.82
2019-04-01T23:04:37.066Z,94956.43
2019-04-01T23:07:06.775Z,94968.12
2019-04-01T23:09:36.332Z,94958.70
2019-04-01T23:12:05.774Z,94962.87
2019-04-01T23:14:35.267Z,94958.38
2019-04-01T23:17:04.870Z,94962.77
2019-04-01T23:19:34.918Z,94956.13
2019-04-01T23:22:05.800Z,94962.31
2019-04-01T23:24:35.230Z,94967.84
2019-04-01T23:27:04.729Z,94978.42
2019-04-01T23:29:34.266Z,94973.44
2019-04-01T23:32:03.755Z,94972.98
2019-04-01T23:34:33.275Z,94980.95
2019-04-01T23:37:02.760Z,94986.40
2019-04-01T23:39:32.255Z,94977.45
2019-04-01T23:42:01.859Z,94983.26
2019-04-01T23:44:31.361Z,94994.42
2019-04-01T23:47:00.854Z,94996.69
2019-04-01T23:49:30.364Z,95001.17
2019-04-01T23:51:59.922Z,94995.96
2019-04-01T23:54:31.017Z,95002.84
2019-04-01T23:57:00.788Z,95013.07
2019-04-01T23:59:30.277Z,95014.13
